createdAt,value
2022-10-14T00:01:37.692Z,94.85
2022-10-14T00:11:40.487Z,95.14
2022-10-14T00:21:46.702Z,95.10
2022-10-14T00:31:51.648Z,95.02
2022-10-14T00:41:55.646Z,95.06
2022-10-14T00:52:03.126Z,95.10
2022-10-14T01:02:07.586Z,94.94
2022-10-14T01:12:28.665Z,94.96
2022-10-14T01:22:37.986Z,95.14
2022-10-14T01:32:52.842Z,95.23
2022-10-14T01:42:57.380Z,95.43
2022-10-14T01:53:06.086Z,95.36
2022-10-14T02:03:08.805Z,95.45
2022-10-14T02:13:27.190Z,95.59
2022-10-14T02:23:37.424Z,95.53
2022-10-14T02:33:43.207Z,96.27
2022-10-14T02:43:46.159Z,95.51
2022-10-14T02:53:50.086Z,95.57
2022-10-14T03:03:52.690Z,95.70
2022-10-14T03:13:56.655Z,95.54
2022-10-14T03:23:59.242Z,95.62
2022-10-14T03:34:03.532Z,95.75
2022-10-14T03:44:06.350Z,96.26
2022-10-14T03:54:10.491Z,96.82
2022-10-14T04:04:13.083Z,96.84
2022-10-14T04:14:17.062Z,96.46
2022-10-14T04:24:19.697Z,96.54
2022-10-14T04:34:23.654Z,96.75
2022-10-14T04:44:26.271Z,97.26
2022-10-14T04:54:30.739Z,97.10
2022-10-14T05:04:33.379Z,97.16
2022-10-14T05:14:37.346Z,97.00
2022-10-14T05:24:39.969Z,97.06
2022-10-14T05:34:43.917Z,96.95
2022-10-14T05:44:46.998Z,97.12
2022-10-14T05:54:51.010Z,96.60
2022-10-14T06:04:54.128Z,96.55
2022-10-14T06:14:58.108Z,96.60
2022-10-14T06:25:04.264Z,96.63
2022-10-14T06:35:09.739Z,96.49
2022-10-14T06:45:12.320Z,96.49
2022-10-14T06:55:17.526Z,96.14
2022-10-14T07:05:20.171Z,95.73
2022-10-14T07:15:24.359Z,96.10
2022-10-14T07:25:27.000Z,95.84
2022-10-14T07:35:30.957Z,95.25
2022-10-14T07:45:35.828Z,95.67
2022-10-14T07:55:52.104Z,95.07
2022-10-14T08:06:00.251Z,94.50
2022-10-14T08:16:04.494Z,94.49
2022-10-14T08:26:19.576Z,93.21
2022-10-14T08:36:23.944Z,92.79
2022-10-14T08:46:34.302Z,91.53
2022-10-14T08:56:38.759Z,92.14
2022-10-14T09:06:43.864Z,91.47
2022-10-14T09:16:51.945Z,91.14
2022-10-14T09:26:59.381Z,89.67
2022-10-14T09:37:16.608Z,88.04
2022-10-14T09:47:19.495Z,88.10
2022-10-14T09:57:25.760Z,87.68
2022-10-14T10:07:32.045Z,87.28
2022-10-14T10:17:40.499Z,87.73
2022-10-14T10:27:45.618Z,87.18
2022-10-14T10:38:06.589Z,86.16
2022-10-14T10:48:16.501Z,87.11
2022-10-14T10:58:27.638Z,86.61
2022-10-14T11:09:02.451Z,87.30
2022-10-14T11:19:13.903Z,87.63
2022-10-14T11:29:57.783Z,89.07
2022-10-14T11:40:07.914Z,89.54
2022-10-14T11:50:17.956Z,90.41
2022-10-14T12:00:41.896Z,90.67
2022-10-14T12:10:48.691Z,91.28
2022-10-14T12:20:58.712Z,91.55
2022-10-14T12:31:19.918Z,92.97
2022-10-14T12:41:43.526Z,92.28
2022-10-14T12:51:54.592Z,92.35
2022-10-14T13:02:04.308Z,92.60
2022-10-14T13:12:40.874Z,92.88
2022-10-14T13:22:45.402Z,92.82
2022-10-14T13:32:53.298Z,92.79
2022-10-14T13:42:58.867Z,93.18
2022-10-14T13:53:04.586Z,93.37
2022-10-14T14:03:18.476Z,92.96
2022-10-14T14:13:21.624Z,93.17
2022-10-14T14:23:26.114Z,93.16
2022-10-14T14:33:31.487Z,93.30
2022-10-14T14:43:40.854Z,93.36
2022-10-14T14:53:50.957Z,93.46
2022-10-14T15:04:13.039Z,93.56
2022-10-14T15:14:30.752Z,94.25
2022-10-14T15:24:34.715Z,94.78
2022-10-14T15:34:37.440Z,95.35
2022-10-14T15:44:41.379Z,96.14
2022-10-14T15:54:45.786Z,96.78
2022-10-14T16:05:15.016Z,96.72
2022-10-14T16:15:34.659Z,97.53
2022-10-14T16:25:39.896Z,96.69
2022-10-14T16:35:43.744Z,96.76
2022-10-14T16:45:47.683Z,96.97
2022-10-14T16:55:50.338Z,97.19
2022-10-14T17:05:59.494Z,97.14
2022-10-14T17:16:02.390Z,96.95
2022-10-14T17:26:06.964Z,97.07
2022-10-14T17:36:17.687Z,97.32
2022-10-14T17:46:24.707Z,97.82
2022-10-14T17:56:29.151Z,97.78
2022-10-14T18:06:35.604Z,99.06
2022-10-14T18:16:39.819Z,98.56
2022-10-14T18:26:43.764Z,97.74
2022-10-14T18:36:47.790Z,98.10
2022-10-14T18:46:51.787Z,98.16
2022-10-14T18:56:54.758Z,99.10
2022-10-14T19:06:58.697Z,98.52
2022-10-14T19:17:01.361Z,98.69
2022-10-14T19:27:05.639Z,99.16
2022-10-14T19:37:08.213Z,99.15
2022-10-14T19:47:12.616Z,98.61
2022-10-14T19:57:15.184Z,98.08
2022-10-14T20:07:19.215Z,97.52
2022-10-14T20:17:21.886Z,97.46
2022-10-14T20:27:26.184Z,97.07
2022-10-14T20:37:31.514Z,96.97
2022-10-14T20:47:35.756Z,96.59
2022-10-14T20:57:38.675Z,96.29
2022-10-14T21:07:42.631Z,96.04
2022-10-14T21:17:48.763Z,95.87
2022-10-14T21:27:52.766Z,96.10
2022-10-14T21:37:55.400Z,96.07
2022-10-14T21:58:07.032Z,96.12
2022-10-14T22:08:11.183Z,95.85
2022-10-14T22:18:13.751Z,95.90
2022-10-14T22:28:17.785Z,95.84
2022-10-14T22:38:20.396Z,95.68
2022-10-14T22:48:24.439Z,95.72
2022-10-14T22:58:27.373Z,95.75
2022-10-14T23:08:31.979Z,95.72
2022-10-14T23:18:36.155Z,95.86
2022-10-14T23:28:40.924Z,95.92
2022-10-14T23:38:44.515Z,96.04
2022-10-14T23:48:55.843Z,96.04
2022-10-14T23:59:11.540Z,95.73
